sensor_id;sensor_type;location;lat;lon;timestamp;pressure;altitude;pressure_sealevel;temperature
64904;BMP280;51401;48.882;12.598;2023-03-01T00:01:21;95581.59;;;-0.47
64904;BMP280;51401;48.882;12.598;2023-03-01T00:03:46;95564.16;;;-0.45
64904;BMP280;51401;48.882;12.598;2023-03-01T00:06:13;95552.56;;;-0.42
64904;BMP280;51401;48.882;12.598;2023-03-01T00:08:38;95521.34;;;-0.39
64904;BMP280;51401;48.882;12.598;2023-03-01T00:13:41;95582.31;;;-0.46
64904;BMP280;51401;48.882;12.598;2023-03-01T00:16:11;95604.13;;;-0.45
64904;BMP280;51401;48.882;12.598;2023-03-01T00:18:37;95609.91;;;-0.48
64904;BMP280;51401;48.882;12.598;2023-03-01T00:21:02;95634.56;;;-0.52
64904;BMP280;51401;48.882;12.598;2023-03-01T00:23:28;95639.66;;;-0.52
64904;BMP280;51401;48.882;12.598;2023-03-01T00:25:53;95626.19;;;-0.53
64904;BMP280;51401;48.882;12.598;2023-03-01T00:28:19;95638.22;;;-0.24
64904;BMP280;51401;48.882;12.598;2023-03-01T00:30:45;95676.28;;;-0.05
64904;BMP280;51401;48.882;12.598;2023-03-01T00:33:11;95776.00;;;0.00
64904;BMP280;51401;48.882;12.598;2023-03-01T00:35:37;95830.16;;;0.00
64904;BMP280;51401;48.882;12.598;2023-03-01T00:38:03;95861.38;;;-0.02
64904;BMP280;51401;48.882;12.598;2023-03-01T00:40:30;95908.75;;;0.02
64904;BMP280;51401;48.882;12.598;2023-03-01T00:42:56;95917.06;;;-0.01
64904;BMP280;51401;48.882;12.598;2023-03-01T00:45:22;95924.03;;;0.02
64904;BMP280;51401;48.882;12.598;2023-03-01T00:47:48;95944.09;;;0.07
64904;BMP280;51401;48.882;12.598;2023-03-01T00:50:14;95928.72;;;0.00
64904;BMP280;51401;48.882;12.598;2023-03-01T00:52:39;95954.00;;;-0.10
64904;BMP280;51401;48.882;12.598;2023-03-01T00:55:05;95945.56;;;-0.14
64904;BMP280;51401;48.882;12.598;2023-03-01T00:57:31;95934.03;;;-0.08
64904;BMP280;51401;48.882;12.598;2023-03-01T00:59:56;95938.88;;;-0.22
64904;BMP280;51401;48.882;12.598;2023-03-01T01:02:22;95898.22;;;-0.19
64904;BMP280;51401;48.882;12.598;2023-03-01T01:04:47;95903.19;;;-0.26
64904;BMP280;51401;48.882;12.598;2023-03-01T01:07:13;95890.44;;;-0.29
64904;BMP280;51401;48.882;12.598;2023-03-01T01:09:39;95862.47;;;-0.26
64904;BMP280;51401;48.882;12.598;2023-03-01T01:12:04;95856.25;;;-0.28
64904;BMP280;51401;48.882;12.598;2023-03-01T01:14:30;95831.94;;;-0.26
64904;BMP280;51401;48.882;12.598;2023-03-01T01:16:55;95846.81;;;-0.28
64904;BMP280;51401;48.882;12.598;2023-03-01T01:19:21;95822.34;;;-0.13
64904;BMP280;51401;48.882;12.598;2023-03-01T01:21:47;95828.63;;;-0.04
64904;BMP280;51401;48.882;12.598;2023-03-01T01:24:14;95851.06;;;-0.13
64904;BMP280;51401;48.882;12.598;2023-03-01T01:26:40;95832.91;;;-0.11
64904;BMP280;51401;48.882;12.598;2023-03-01T01:29:06;95830.22;;;0.04
64904;BMP280;51401;48.882;12.598;2023-03-01T01:31:34;95830.56;;;0.02
64904;BMP280;51401;48.882;12.598;2023-03-01T01:34:01;95817.84;;;0.02
64904;BMP280;51401;48.882;12.598;2023-03-01T01:36:27;95802.38;;;-0.08
64904;BMP280;51401;48.882;12.598;2023-03-01T01:38:52;95762.31;;;-0.14
64904;BMP280;51401;48.882;12.598;2023-03-01T01:41:19;95730.25;;;-0.19
64904;BMP280;51401;48.882;12.598;2023-03-01T01:43:48;95711.06;;;-0.13
64904;BMP280;51401;48.882;12.598;2023-03-01T01:46:28;95724.53;;;-0.12
64904;BMP280;51401;48.882;12.598;2023-03-01T01:49:07;95733.09;;;-0.24
64904;BMP280;51401;48.882;12.598;2023-03-01T01:51:39;95730.03;;;-0.33
64904;BMP280;51401;48.882;12.598;2023-03-01T01:54:22;95720.16;;;-0.38
64904;BMP280;51401;48.882;12.598;2023-03-01T01:56:53;95689.59;;;-0.41
64904;BMP280;51401;48.882;12.598;2023-03-01T01:59:20;95661.16;;;-0.21
64904;BMP280;51401;48.882;12.598;2023-03-01T02:01:50;95682.19;;;-0.27
64904;BMP280;51401;48.882;12.598;2023-03-01T02:04:15;95695.69;;;-0.20
64904;BMP280;51401;48.882;12.598;2023-03-01T02:06:46;95720.09;;;-0.19
64904;BMP280;51401;48.882;12.598;2023-03-01T02:09:16;95701.88;;;-0.21
64904;BMP280;51401;48.882;12.598;2023-03-01T02:11:44;95698.16;;;-0.27
64904;BMP280;51401;48.882;12.598;2023-03-01T02:14:09;95684.25;;;-0.33
64904;BMP280;51401;48.882;12.598;2023-03-01T02:16:35;95680.59;;;-0.35
64904;BMP280;51401;48.882;12.598;2023-03-01T02:19:03;95649.31;;;-0.36
64904;BMP280;51401;48.882;12.598;2023-03-01T02:22:24;95650.69;;;-0.41
64904;BMP280;51401;48.882;12.598;2023-03-01T02:27:18;95610.72;;;-0.41
64904;BMP280;51401;48.882;12.598;2023-03-01T02:29:49;95597.69;;;-0.36
64904;BMP280;51401;48.882;12.598;2023-03-01T02:32:15;95607.03;;;-0.43
64904;BMP280;51401;48.882;12.598;2023-03-01T02:34:41;95609.59;;;-0.43
64904;BMP280;51401;48.882;12.598;2023-03-01T02:37:11;95618.78;;;-0.36
64904;BMP280;51401;48.882;12.598;2023-03-01T02:39:43;95642.31;;;-0.42
64904;BMP280;51401;48.882;12.598;2023-03-01T02:42:17;95635.47;;;-0.38
64904;BMP280;51401;48.882;12.598;2023-03-01T02:44:43;95643.66;;;-0.51
64904;BMP280;51401;48.882;12.598;2023-03-01T02:47:09;95619.75;;;-0.43
64904;BMP280;51401;48.882;12.598;2023-03-01T02:49:36;95621.13;;;-0.53
64904;BMP280;51401;48.882;12.598;2023-03-01T02:52:07;95591.06;;;-0.44
64904;BMP280;51401;48.882;12.598;2023-03-01T02:54:52;95601.63;;;-0.42
64904;BMP280;51401;48.882;12.598;2023-03-01T02:57:21;95608.53;;;-0.42
64904;BMP280;51401;48.882;12.598;2023-03-01T02:59:47;95607.03;;;-0.47
64904;BMP280;51401;48.882;12.598;2023-03-01T03:02:25;95621.50;;;-0.51
64904;BMP280;51401;48.882;12.598;2023-03-01T03:05:08;95616.38;;;-0.54
64904;BMP280;51401;48.882;12.598;2023-03-01T03:07:36;95613.44;;;-0.56
64904;BMP280;51401;48.882;12.598;2023-03-01T03:10:04;95613.44;;;-0.56
64904;BMP280;51401;48.882;12.598;2023-03-01T03:12:29;95606.84;;;-0.61
64904;BMP280;51401;48.882;12.598;2023-03-01T03:14:55;95582.97;;;-0.53
64904;BMP280;51401;48.882;12.598;2023-03-01T03:17:20;95608.19;;;-0.41
64904;BMP280;51401;48.882;12.598;2023-03-01T03:19:45;95639.25;;;-0.54
64904;BMP280;51401;48.882;12.598;2023-03-01T03:22:12;95641.06;;;-0.55
64904;BMP280;51401;48.882;12.598;2023-03-01T03:24:37;95635.22;;;-0.55
64904;BMP280;51401;48.882;12.598;2023-03-01T03:27:04;95632.41;;;-0.50
64904;BMP280;51401;48.882;12.598;2023-03-01T03:29:30;95642.25;;;-0.49
64904;BMP280;51401;48.882;12.598;2023-03-01T03:31:55;95674.66;;;-0.42
64904;BMP280;51401;48.882;12.598;2023-03-01T03:34:20;95711.34;;;-0.43
64904;BMP280;51401;48.882;12.598;2023-03-01T03:36:46;95710.47;;;-0.54
64904;BMP280;51401;48.882;12.598;2023-03-01T03:39:11;95693.06;;;-0.52
64904;BMP280;51401;48.882;12.598;2023-03-01T03:41:36;95695.41;;;-0.66
64904;BMP280;51401;48.882;12.598;2023-03-01T03:44:02;95646.78;;;-0.61
64904;BMP280;51401;48.882;12.598;2023-03-01T03:46:27;95652.66;;;-0.57
64904;BMP280;51401;48.882;12.598;2023-03-01T03:48:52;95649.31;;;-0.61
64904;BMP280;51401;48.882;12.598;2023-03-01T03:51:18;95630.72;;;-0.69
64904;BMP280;51401;48.882;12.598;2023-03-01T03:53:44;95645.28;;;-0.66
64904;BMP280;51401;48.882;12.598;2023-03-01T03:56:11;95639.75;;;-0.71
64904;BMP280;51401;48.882;12.598;2023-03-01T03:58:36;95625.84;;;-0.77
64904;BMP280;51401;48.882;12.598;2023-03-01T04:01:02;95596.31;;;-0.59
64904;BMP280;51401;48.882;12.598;2023-03-01T04:03:28;95629.97;;;-0.69
64904;BMP280;51401;48.882;12.598;2023-03-01T04:05:54;95617.59;;;-0.71
64904;BMP280;51401;48.882;12.598;2023-03-01T04:08:22;95599.38;;;-0.76
64904;BMP280;51401;48.882;12.598;2023-03-01T04:10:52;95603.03;;;-0.74
64904;BMP280;51401;48.882;12.598;2023-03-01T04:13:20;95599.75;;;-0.74
64904;BMP280;51401;48.882;12.598;2023-03-01T04:15:48;95609.88;;;-0.77
64904;BMP280;51401;48.882;12.598;2023-03-01T04:18:14;95626.28;;;-0.72
64904;BMP280;51401;48.882;12.598;2023-03-01T04:20:41;95650.84;;;-0.82
64904;BMP280;51401;48.882;12.598;2023-03-01T04:23:13;95629.66;;;-0.90
64904;BMP280;51401;48.882;12.598;2023-03-01T04:25:52;95609.66;;;-0.91
64904;BMP280;51401;48.882;12.598;2023-03-01T04:30:47;95590.25;;;-0.77
64904;BMP280;51401;48.882;12.598;2023-03-01T04:33:12;95592.59;;;-0.91
64904;BMP280;51401;48.882;12.598;2023-03-01T04:35:37;95623.94;;;-0.83
64904;BMP280;51401;48.882;12.598;2023-03-01T04:38:05;95631.28;;;-0.78
64904;BMP280;51401;48.882;12.598;2023-03-01T04:40:30;95633.47;;;-0.77
64904;BMP280;51401;48.882;12.598;2023-03-01T04:42:56;95688.41;;;-0.73
64904;BMP280;51401;48.882;12.598;2023-03-01T04:45:21;95685.81;;;-0.76
64904;BMP280;51401;48.882;12.598;2023-03-01T04:47:47;95689.25;;;-0.87
64904;BMP280;51401;48.882;12.598;2023-03-01T04:50:15;95658.75;;;-0.87
64904;BMP280;51401;48.882;12.598;2023-03-01T04:52:42;95654.31;;;-0.94
64904;BMP280;51401;48.882;12.598;2023-03-01T04:55:07;95645.50;;;-1.00
64904;BMP280;51401;48.882;12.598;2023-03-01T04:57:33;95631.94;;;-1.07
64904;BMP280;51401;48.882;12.598;2023-03-01T04:59:58;95604.13;;;-1.00
64904;BMP280;51401;48.882;12.598;2023-03-01T05:02:24;95626.63;;;-0.99
64904;BMP280;51401;48.882;12.598;2023-03-01T05:04:49;95625.44;;;-1.05
64904;BMP280;51401;48.882;12.598;2023-03-01T05:07:14;95606.09;;;-1.12
64904;BMP280;51401;48.882;12.598;2023-03-01T05:09:47;95587.91;;;-1.14
64904;BMP280;51401;48.882;12.598;2023-03-01T05:12:14;95579.28;;;-1.10
64904;BMP280;51401;48.882;12.598;2023-03-01T05:14:40;95584.00;;;-1.09
64904;BMP280;51401;48.882;12.598;2023-03-01T05:17:06;95598.44;;;-1.16
64904;BMP280;51401;48.882;12.598;2023-03-01T05:19:31;95580.00;;;-1.10
64904;BMP280;51401;48.882;12.598;2023-03-01T05:21:58;95591.03;;;-0.99
64904;BMP280;51401;48.882;12.598;2023-03-01T05:24:27;95629.41;;;-1.07
64904;BMP280;51401;48.882;12.598;2023-03-01T05:26:53;95605.41;;;-1.10
64904;BMP280;51401;48.882;12.598;2023-03-01T05:29:20;95607.44;;;-1.18
64904;BMP280;51401;48.882;12.598;2023-03-01T05:31:59;95613.28;;;-1.18
64904;BMP280;51401;48.882;12.598;2023-03-01T05:34:27;95596.94;;;-1.17
64904;BMP280;51401;48.882;12.598;2023-03-01T05:36:53;95564.19;;;-1.00
64904;BMP280;51401;48.882;12.598;2023-03-01T05:39:23;95600.00;;;-1.08
64904;BMP280;51401;48.882;12.598;2023-03-01T05:41:52;95621.44;;;-1.06
64904;BMP280;51401;48.882;12.598;2023-03-01T05:44:18;95629.31;;;-1.14
64904;BMP280;51401;48.882;12.598;2023-03-01T05:46:44;95604.91;;;-1.18
64904;BMP280;51401;48.882;12.598;2023-03-01T05:49:10;95620.06;;;-1.25
64904;BMP280;51401;48.882;12.598;2023-03-01T05:51:35;95618.97;;;-1.24
64904;BMP280;51401;48.882;12.598;2023-03-01T05:54:01;95590.81;;;-1.16
64904;BMP280;51401;48.882;12.598;2023-03-01T05:56:26;95602.59;;;-1.27
64904;BMP280;51401;48.882;12.598;2023-03-01T05:58:51;95593.69;;;-1.17
64904;BMP280;51401;48.882;12.598;2023-03-01T06:01:17;95613.69;;;-1.12
64904;BMP280;51401;48.882;12.598;2023-03-01T06:03:42;95619.72;;;-1.24
64904;BMP280;51401;48.882;12.598;2023-03-01T06:06:07;95616.03;;;-1.26
64904;BMP280;51401;48.882;12.598;2023-03-01T06:08:33;95595.03;;;-1.23
64904;BMP280;51401;48.882;12.598;2023-03-01T06:10:58;95597.41;;;-1.11
64904;BMP280;51401;48.882;12.598;2023-03-01T06:13:24;95634.78;;;-1.12
64904;BMP280;51401;48.882;12.598;2023-03-01T06:15:49;95638.06;;;-1.11
64904;BMP280;51401;48.882;12.598;2023-03-01T06:18:15;95654.09;;;-1.08
64904;BMP280;51401;48.882;12.598;2023-03-01T06:20:40;95636.69;;;-1.06
64904;BMP280;51401;48.882;12.598;2023-03-01T06:23:06;95660.03;;;-1.00
64904;BMP280;51401;48.882;12.598;2023-03-01T06:25:31;95661.53;;;-0.96
64904;BMP280;51401;48.882;12.598;2023-03-01T06:27:57;95677.19;;;-0.94
64904;BMP280;51401;48.882;12.598;2023-03-01T06:30:24;95679.09;;;-0.87
64904;BMP280;51401;48.882;12.598;2023-03-01T06:32:49;95712.97;;;-0.80
64904;BMP280;51401;48.882;12.598;2023-03-01T06:35:16;95728.00;;;-0.72
64904;BMP280;51401;48.882;12.598;2023-03-01T06:37:46;95757.69;;;-0.53
64904;BMP280;51401;48.882;12.598;2023-03-01T06:40:11;95791.13;;;-0.55
64904;BMP280;51401;48.882;12.598;2023-03-01T06:42:39;95805.59;;;-0.37
64904;BMP280;51401;48.882;12.598;2023-03-01T06:45:06;95869.72;;;-0.28
64904;BMP280;51401;48.882;12.598;2023-03-01T06:47:33;95857.34;;;-0.07
64904;BMP280;51401;48.882;12.598;2023-03-01T06:49:59;95885.16;;;0.31
64904;BMP280;51401;48.882;12.598;2023-03-01T06:52:25;95968.63;;;0.66
64904;BMP280;51401;48.882;12.598;2023-03-01T06:54:50;96038.97;;;1.18
64904;BMP280;51401;48.882;12.598;2023-03-01T06:57:15;96249.28;;;1.69
64904;BMP280;51401;48.882;12.598;2023-03-01T06:59:41;96517.31;;;2.06
64904;BMP280;51401;48.882;12.598;2023-03-01T07:02:06;96709.72;;;2.44
64904;BMP280;51401;48.882;12.598;2023-03-01T07:04:31;96812.41;;;2.65
64904;BMP280;51401;48.882;12.598;2023-03-01T07:06:57;96838.22;;;2.75
64904;BMP280;51401;48.882;12.598;2023-03-01T07:09:23;96883.38;;;2.86
64904;BMP280;51401;48.882;12.598;2023-03-01T07:11:48;96910.66;;;2.98
64904;BMP280;51401;48.882;12.598;2023-03-01T07:14:14;96876.72;;;3.19
64904;BMP280;51401;48.882;12.598;2023-03-01T07:16:39;96888.72;;;3.34
64904;BMP280;51401;48.882;12.598;2023-03-01T07:19:05;96917.94;;;3.52
64904;BMP280;51401;48.882;12.598;2023-03-01T07:21:30;96910.03;;;3.60
64904;BMP280;51401;48.882;12.598;2023-03-01T07:23:56;96930.69;;;3.71
64904;BMP280;51401;48.882;12.598;2023-03-01T07:26:21;96918.97;;;3.92
64904;BMP280;51401;48.882;12.598;2023-03-01T07:28:47;96953.84;;;3.74
64904;BMP280;51401;48.882;12.598;2023-03-01T07:31:12;96980.16;;;3.93
64904;BMP280;51401;48.882;12.598;2023-03-01T07:33:37;96977.34;;;4.20
64904;BMP280;51401;48.882;12.598;2023-03-01T07:36:03;97012.44;;;4.39
64904;BMP280;51401;48.882;12.598;2023-03-01T07:38:29;97021.59;;;4.62
64904;BMP280;51401;48.882;12.598;2023-03-01T07:40:59;97005.19;;;4.44
64904;BMP280;51401;48.882;12.598;2023-03-01T07:43:25;97073.91;;;4.80
64904;BMP280;51401;48.882;12.598;2023-03-01T07:45:50;97090.63;;;4.92
64904;BMP280;51401;48.882;12.598;2023-03-01T07:48:16;97106.47;;;4.98
64904;BMP280;51401;48.882;12.598;2023-03-01T07:50:41;97129.91;;;5.18
64904;BMP280;51401;48.882;12.598;2023-03-01T07:53:07;97119.41;;;5.27
64904;BMP280;51401;48.882;12.598;2023-03-01T07:55:33;97148.16;;;5.14
64904;BMP280;51401;48.882;12.598;2023-03-01T07:57:58;97169.78;;;5.35
64904;BMP280;51401;48.882;12.598;2023-03-01T08:00:23;97138.69;;;5.18
64904;BMP280;51401;48.882;12.598;2023-03-01T08:02:49;97172.22;;;5.24
64904;BMP280;51401;48.882;12.598;2023-03-01T08:05:14;97178.75;;;5.48
64904;BMP280;51401;48.882;12.598;2023-03-01T08:07:39;97177.13;;;5.62
64904;BMP280;51401;48.882;12.598;2023-03-01T08:10:05;97213.59;;;5.45
64904;BMP280;51401;48.882;12.598;2023-03-01T08:12:31;97197.00;;;5.39
64904;BMP280;51401;48.882;12.598;2023-03-01T08:14:56;97212.97;;;6.06
64904;BMP280;51401;48.882;12.598;2023-03-01T08:17:22;97314.50;;;6.12
64904;BMP280;51401;48.882;12.598;2023-03-01T08:19:47;97312.22;;;6.07
64904;BMP280;51401;48.882;12.598;2023-03-01T08:22:12;97261.50;;;6.37
64904;BMP280;51401;48.882;12.598;2023-03-01T08:24:38;97288.41;;;6.75
64904;BMP280;51401;48.882;12.598;2023-03-01T08:27:03;97334.91;;;7.21
64904;BMP280;51401;48.882;12.598;2023-03-01T08:29:32;97344.91;;;6.94
64904;BMP280;51401;48.882;12.598;2023-03-01T08:31:58;97308.88;;;7.40
64904;BMP280;51401;48.882;12.598;2023-03-01T08:34:23;97336.97;;;8.02
64904;BMP280;51401;48.882;12.598;2023-03-01T08:36:48;97418.72;;;8.41
64904;BMP280;51401;48.882;12.598;2023-03-01T08:39:16;97877.03;;;8.72
64904;BMP280;51401;48.882;12.598;2023-03-01T08:41:42;97963.34;;;8.68
64904;BMP280;51401;48.882;12.598;2023-03-01T08:44:09;98044.59;;;8.96
64904;BMP280;51401;48.882;12.598;2023-03-01T08:46:37;98051.41;;;8.56
64904;BMP280;51401;48.882;12.598;2023-03-01T08:49:07;98103.31;;;9.50
64904;BMP280;51401;48.882;12.598;2023-03-01T08:51:32;98151.88;;;9.89
64904;BMP280;51401;48.882;12.598;2023-03-01T08:54:05;98117.47;;;7.75
64904;BMP280;51401;48.882;12.598;2023-03-01T08:56:31;98131.00;;;9.17
64904;BMP280;51401;48.882;12.598;2023-03-01T08:58:56;98159.34;;;9.65
64904;BMP280;51401;48.882;12.598;2023-03-01T09:01:21;98156.50;;;8.08
64904;BMP280;51401;48.882;12.598;2023-03-01T09:03:47;98156.00;;;9.35
64904;BMP280;51401;48.882;12.598;2023-03-01T09:06:13;98177.25;;;10.09
64904;BMP280;51401;48.882;12.598;2023-03-01T09:08:41;98177.59;;;9.46
64904;BMP280;51401;48.882;12.598;2023-03-01T09:11:09;98164.13;;;9.63
64904;BMP280;51401;48.882;12.598;2023-03-01T09:13:34;98177.31;;;10.16
64904;BMP280;51401;48.882;12.598;2023-03-01T09:16:01;98188.16;;;9.92
64904;BMP280;51401;48.882;12.598;2023-03-01T09:18:27;98201.50;;;9.94
64904;BMP280;51401;48.882;12.598;2023-03-01T09:20:52;98191.22;;;10.01
64904;BMP280;51401;48.882;12.598;2023-03-01T09:23:20;98181.63;;;9.43
64904;BMP280;51401;48.882;12.598;2023-03-01T09:25:46;98190.59;;;9.78
64904;BMP280;51401;48.882;12.598;2023-03-01T09:28:11;98170.88;;;7.56
64904;BMP280;51401;48.882;12.598;2023-03-01T09:30:36;98181.84;;;9.61
64904;BMP280;51401;48.882;12.598;2023-03-01T09:33:02;98192.44;;;10.46
64904;BMP280;51401;48.882;12.598;2023-03-01T09:35:27;98193.78;;;10.33
64904;BMP280;51401;48.882;12.598;2023-03-01T09:37:53;98200.41;;;11.20
64904;BMP280;51401;48.882;12.598;2023-03-01T09:40:21;98210.56;;;10.43
64904;BMP280;51401;48.882;12.598;2023-03-01T09:43:03;98189.47;;;10.44
64904;BMP280;51401;48.882;12.598;2023-03-01T09:45:35;98205.00;;;11.37
64904;BMP280;51401;48.882;12.598;2023-03-01T09:48:03;98208.56;;;9.68
64904;BMP280;51401;48.882;12.598;2023-03-01T09:50:36;98182.28;;;9.98
64904;BMP280;51401;48.882;12.598;2023-03-01T09:53:09;98194.84;;;10.65
64904;BMP280;51401;48.882;12.598;2023-03-01T10:01:26;98214.06;;;11.70
64904;BMP280;51401;48.882;12.598;2023-03-01T10:09:37;98171.91;;;9.95
64904;BMP280;51401;48.882;12.598;2023-03-01T10:12:09;98197.13;;;12.10
64904;BMP280;51401;48.882;12.598;2023-03-01T10:14:39;98200.91;;;12.58
64904;BMP280;51401;48.882;12.598;2023-03-01T10:17:24;98210.16;;;12.24
64904;BMP280;51401;48.882;12.598;2023-03-01T10:19:50;98195.78;;;10.89
64904;BMP280;51401;48.882;12.598;2023-03-01T10:22:21;98200.03;;;10.68
64904;BMP280;51401;48.882;12.598;2023-03-01T10:24:47;98193.09;;;11.36
64904;BMP280;51401;48.882;12.598;2023-03-01T10:27:26;98202.78;;;12.85
64904;BMP280;51401;48.882;12.598;2023-03-01T10:30:14;98208.78;;;13.97
64904;BMP280;51401;48.882;12.598;2023-03-01T10:32:42;98208.63;;;11.99
64904;BMP280;51401;48.882;12.598;2023-03-01T10:38:04;98220.59;;;13.21
64904;BMP280;51401;48.882;12.598;2023-03-01T10:40:32;98208.22;;;13.56
64904;BMP280;51401;48.882;12.598;2023-03-01T10:42:59;98223.97;;;14.63
64904;BMP280;51401;48.882;12.598;2023-03-01T10:45:35;98218.25;;;14.81
64904;BMP280;51401;48.882;12.598;2023-03-01T10:50:35;98183.69;;;11.78
64904;BMP280;51401;48.882;12.598;2023-03-01T10:53:04;98188.66;;;13.03
64904;BMP280;51401;48.882;12.598;2023-03-01T10:55:38;98158.16;;;11.16
64904;BMP280;51401;48.882;12.598;2023-03-01T11:00:59;98183.13;;;14.46
64904;BMP280;51401;48.882;12.598;2023-03-01T11:03:35;98176.97;;;14.23
64904;BMP280;51401;48.882;12.598;2023-03-01T11:08:41;98163.22;;;13.45
64904;BMP280;51401;48.882;12.598;2023-03-01T11:13:56;98156.28;;;13.07
64904;BMP280;51401;48.882;12.598;2023-03-01T11:16:24;98157.25;;;13.48
64904;BMP280;51401;48.882;12.598;2023-03-01T11:19:13;98149.59;;;12.96
64904;BMP280;51401;48.882;12.598;2023-03-01T11:21:50;98125.03;;;13.04
64904;BMP280;51401;48.882;12.598;2023-03-01T11:24:18;98129.22;;;13.76
64904;BMP280;51401;48.882;12.598;2023-03-01T11:26:50;98102.09;;;11.96
64904;BMP280;51401;48.882;12.598;2023-03-01T11:29:35;98099.56;;;13.46
64904;BMP280;51401;48.882;12.598;2023-03-01T11:32:06;98113.50;;;13.89
64904;BMP280;51401;48.882;12.598;2023-03-01T11:34:39;98105.66;;;13.15
64904;BMP280;51401;48.882;12.598;2023-03-01T11:37:21;98081.94;;;12.96
64904;BMP280;51401;48.882;12.598;2023-03-01T11:39:58;98077.81;;;13.80
64904;BMP280;51401;48.882;12.598;2023-03-01T11:42:35;98085.00;;;13.62
64904;BMP280;51401;48.882;12.598;2023-03-01T11:45:08;98071.19;;;12.84
64904;BMP280;51401;48.882;12.598;2023-03-01T11:50:44;98064.75;;;13.19
64904;BMP280;51401;48.882;12.598;2023-03-01T11:53:29;98045.69;;;12.03
64904;BMP280;51401;48.882;12.598;2023-03-01T12:01:39;98040.94;;;13.21
64904;BMP280;51401;48.882;12.598;2023-03-01T12:06:59;98019.16;;;12.84
64904;BMP280;51401;48.882;12.598;2023-03-01T12:12:18;98025.25;;;13.27
64904;BMP280;51401;48.882;12.598;2023-03-01T12:15:02;97989.91;;;11.46
64904;BMP280;51401;48.882;12.598;2023-03-01T12:17:46;97980.47;;;12.89
64904;BMP280;51401;48.882;12.598;2023-03-01T12:20:25;97982.47;;;13.86
64904;BMP280;51401;48.882;12.598;2023-03-01T12:26:00;97992.28;;;13.68
64904;BMP280;51401;48.882;12.598;2023-03-01T12:28:35;98007.19;;;14.43
64904;BMP280;51401;48.882;12.598;2023-03-01T12:34:40;97997.44;;;13.71
64904;BMP280;51401;48.882;12.598;2023-03-01T12:37:36;97976.31;;;12.98
64904;BMP280;51401;48.882;12.598;2023-03-01T12:42:58;97986.31;;;13.67
64904;BMP280;51401;48.882;12.598;2023-03-01T12:50:57;97958.66;;;13.80
64904;BMP280;51401;48.882;12.598;2023-03-01T12:53:26;97963.75;;;13.94
64904;BMP280;51401;48.882;12.598;2023-03-01T12:55:53;97960.59;;;13.73
64904;BMP280;51401;48.882;12.598;2023-03-01T12:58:39;97962.88;;;13.10
64904;BMP280;51401;48.882;12.598;2023-03-01T13:01:22;97952.19;;;13.52
64904;BMP280;51401;48.882;12.598;2023-03-01T13:04:03;97963.88;;;14.20
64904;BMP280;51401;48.882;12.598;2023-03-01T13:06:40;97952.56;;;13.97
64904;BMP280;51401;48.882;12.598;2023-03-01T13:09:13;97958.00;;;14.09
64904;BMP280;51401;48.882;12.598;2023-03-01T13:11:41;97966.34;;;13.54
64904;BMP280;51401;48.882;12.598;2023-03-01T13:16:52;97937.94;;;13.66
64904;BMP280;51401;48.882;12.598;2023-03-01T13:19:25;97961.53;;;14.29
64904;BMP280;51401;48.882;12.598;2023-03-01T13:21:53;97948.47;;;14.32
64904;BMP280;51401;48.882;12.598;2023-03-01T13:29:44;97947.03;;;13.88
64904;BMP280;51401;48.882;12.598;2023-03-01T13:34:55;97937.72;;;13.90
64904;BMP280;51401;48.882;12.598;2023-03-01T13:37:26;97950.38;;;14.28
64904;BMP280;51401;48.882;12.598;2023-03-01T13:39:54;97944.84;;;14.23
64904;BMP280;51401;48.882;12.598;2023-03-01T13:42:36;97956.78;;;14.53
64904;BMP280;51401;48.882;12.598;2023-03-01T13:45:04;97957.25;;;14.45
64904;BMP280;51401;48.882;12.598;2023-03-01T13:47:33;97949.59;;;14.31
64904;BMP280;51401;48.882;12.598;2023-03-01T13:50:01;97941.13;;;13.81
64904;BMP280;51401;48.882;12.598;2023-03-01T13:52:33;97941.94;;;14.14
64904;BMP280;51401;48.882;12.598;2023-03-01T13:55:00;97943.66;;;14.60
64904;BMP280;51401;48.882;12.598;2023-03-01T13:57:38;97928.63;;;14.09
64904;BMP280;51401;48.882;12.598;2023-03-01T14:00:07;97932.44;;;14.63
64904;BMP280;51401;48.882;12.598;2023-03-01T14:02:33;97936.91;;;14.63
64904;BMP280;51401;48.882;12.598;2023-03-01T14:05:00;97935.31;;;14.43
64904;BMP280;51401;48.882;12.598;2023-03-01T14:07:27;97932.13;;;14.28
64904;BMP280;51401;48.882;12.598;2023-03-01T14:09:58;97922.91;;;14.50
64904;BMP280;51401;48.882;12.598;2023-03-01T14:12:50;97940.31;;;14.27
64904;BMP280;51401;48.882;12.598;2023-03-01T14:15:20;97922.13;;;14.53
64904;BMP280;51401;48.882;12.598;2023-03-01T14:18:01;97920.13;;;14.90
64904;BMP280;51401;48.882;12.598;2023-03-01T14:20:37;97924.69;;;14.86
64904;BMP280;51401;48.882;12.598;2023-03-01T14:23:15;97917.84;;;14.03
64904;BMP280;51401;48.882;12.598;2023-03-01T14:25:50;97922.28;;;14.69
64904;BMP280;51401;48.882;12.598;2023-03-01T14:28:25;97910.06;;;14.92
64904;BMP280;51401;48.882;12.598;2023-03-01T14:31:01;97920.66;;;15.04
64904;BMP280;51401;48.882;12.598;2023-03-01T14:41:13;97878.50;;;13.55
64904;BMP280;51401;48.882;12.598;2023-03-01T14:43:51;97880.69;;;14.29
64904;BMP280;51401;48.882;12.598;2023-03-01T14:46:20;97872.69;;;14.10
64904;BMP280;51401;48.882;12.598;2023-03-01T14:48:49;97872.22;;;14.18
64904;BMP280;51401;48.882;12.598;2023-03-01T14:51:14;97864.88;;;14.13
64904;BMP280;51401;48.882;12.598;2023-03-01T14:53:41;97851.97;;;13.63
64904;BMP280;51401;48.882;12.598;2023-03-01T14:56:13;97864.81;;;13.84
64904;BMP280;51401;48.882;12.598;2023-03-01T14:58:39;97851.22;;;13.66
64904;BMP280;51401;48.882;12.598;2023-03-01T15:01:04;97837.19;;;13.10
64904;BMP280;51401;48.882;12.598;2023-03-01T15:03:34;97804.97;;;12.33
64904;BMP280;51401;48.882;12.598;2023-03-01T15:06:01;97759.25;;;12.39
64904;BMP280;51401;48.882;12.598;2023-03-01T15:08:28;97770.31;;;13.07
64904;BMP280;51401;48.882;12.598;2023-03-01T15:13:34;97735.28;;;12.71
64904;BMP280;51401;48.882;12.598;2023-03-01T15:16:12;97712.47;;;12.32
64904;BMP280;51401;48.882;12.598;2023-03-01T15:18:53;97685.34;;;11.76
64904;BMP280;51401;48.882;12.598;2023-03-01T15:21:22;97653.19;;;11.46
64904;BMP280;51401;48.882;12.598;2023-03-01T15:24:20;97611.72;;;11.29
64904;BMP280;51401;48.882;12.598;2023-03-01T15:29:20;97559.22;;;10.84
64904;BMP280;51401;48.882;12.598;2023-03-01T15:32:04;97537.06;;;10.62
64904;BMP280;51401;48.882;12.598;2023-03-01T15:34:37;97500.84;;;10.34